Time;durP1;ratioP1;P1;durP2;ratioP2;P2;SDS_P1;SDS_P2;PMS_P1;PMS_P2;Temp;Humidity;BMP_temperature;BMP_pressure;BME280_temperature;BME280_humidity;BME280_pressure;Samples;Min_cycle;Max_cycle;Signal;HPM_P1;HPM_P2
2024/01/07 00:01:10;;;;;;;1.10;1.10;;;18.20;61.50;;;;;;5089999;28;20228;-69
2024/01/07 00:03:35;;;;;;;1.33;1.23;;;18.10;61.40;;;;;;5090896;28;20226;-69
2024/01/07 00:06:01;;;;;;;1.50;1.23;;;18.20;61.40;;;;;;5097777;28;20185;-69
2024/01/07 00:08:27;;;;;;;1.08;1.08;;;18.20;61.50;;;;;;5103152;28;20279;-70
2024/01/07 00:10:53;;;;;;;1.38;1.23;;;18.20;61.50;;;;;;5118381;27;20189;-70
2024/01/07 00:13:18;;;;;;;1.00;1.00;;;18.20;61.40;;;;;;5096761;28;20238;-69
2024/01/07 00:15:44;;;;;;;1.10;1.00;;;18.20;61.50;;;;;;5073909;28;20184;-69
2024/01/07 00:18:10;;;;;;;1.08;1.00;;;18.10;61.40;;;;;;5083363;28;20203;-69
2024/01/07 00:20:36;;;;;;;1.02;0.90;;;18.10;61.40;;;;;;5094570;28;20187;-69
2024/01/07 00:23:01;;;;;;;1.15;0.90;;;18.10;61.50;;;;;;5091749;28;20208;-69
2024/01/07 00:25:27;;;;;;;1.30;1.20;;;18.10;61.40;;;;;;5079085;28;20548;-70
2024/01/07 00:27:55;;;;;;;1.10;1.10;;;18.10;61.40;;;;;;5071422;28;20238;-69
2024/01/07 00:30:21;;;;;;;1.10;1.10;;;18.10;61.40;;;;;;5090100;28;20180;-69
2024/01/07 00:32:47;;;;;;;1.30;1.20;;;18.10;61.40;;;;;;5088532;28;20685;-70
2024/01/07 00:35:12;;;;;;;0.93;0.93;;;18.20;61.50;;;;;;5110433;28;20271;-69
2024/01/07 00:37:38;;;;;;;1.00;1.00;;;18.10;61.40;;;;;;5094345;28;20632;-69
2024/01/07 00:40:05;;;;;;;0.90;0.90;;;18.10;61.40;;;;;;5073708;28;20685;-69
2024/01/07 00:42:32;;;;;;;1.00;1.00;;;18.10;61.40;;;;;;5095895;28;20184;-69
2024/01/07 00:44:57;;;;;;;1.20;1.10;;;18.20;61.40;;;;;;5072619;28;20205;-69
2024/01/07 00:47:23;;;;;;;1.38;1.00;;;18.10;61.30;;;;;;5079430;28;20193;-69
2024/01/07 00:49:49;;;;;;;1.10;1.00;;;18.20;61.50;;;;;;5088155;28;20280;-70
2024/01/07 00:52:15;;;;;;;1.25;1.20;;;18.10;61.30;;;;;;5090115;28;20223;-70
2024/01/07 00:54:40;;;;;;;0.95;0.95;;;18.20;61.40;;;;;;5079845;28;20249;-71
2024/01/07 00:57:06;;;;;;;1.33;1.23;;;18.10;61.30;;;;;;5108920;28;20242;-69
2024/01/07 00:59:32;;;;;;;0.90;0.90;;;18.10;61.30;;;;;;5086445;28;20276;-69
2024/01/07 01:01:58;;;;;;;1.10;0.93;;;18.10;61.30;;;;;;5100232;28;20189;-70
2024/01/07 01:04:23;;;;;;;1.10;1.10;;;18.10;61.30;;;;;;5090064;28;20228;-69
2024/01/07 01:06:49;;;;;;;1.58;0.90;;;18.10;61.40;;;;;;5090344;28;20197;-69
2024/01/07 01:09:15;;;;;;;0.90;0.90;;;18.20;61.40;;;;;;5086425;28;20187;-69
2024/01/07 01:11:41;;;;;;;1.50;1.20;;;18.20;61.50;;;;;;5110039;28;20200;-70
2024/01/07 01:14:06;;;;;;;1.15;0.75;;;18.10;61.30;;;;;;5095945;28;20221;-69
2024/01/07 01:16:32;;;;;;;0.80;0.80;;;18.10;61.30;;;;;;5095797;28;20181;-69
2024/01/07 01:18:58;;;;;;;0.90;0.90;;;18.10;61.30;;;;;;5073002;28;20222;-69
2024/01/07 01:21:23;;;;;;;0.98;0.98;;;18.20;61.50;;;;;;5089909;28;20231;-69
2024/01/07 01:23:49;;;;;;;1.10;1.08;;;18.20;61.40;;;;;;5095958;28;20200;-69
2024/01/07 01:26:16;;;;;;;1.00;1.00;;;18.20;61.50;;;;;;5084190;28;20211;-69
2024/01/07 01:28:42;;;;;;;0.90;0.90;;;18.20;61.60;;;;;;5097332;28;20263;-69
2024/01/07 01:31:08;;;;;;;0.95;0.95;;;18.20;61.50;;;;;;5101902;28;20241;-69
2024/01/07 01:33:33;;;;;;;0.82;0.82;;;18.20;61.40;;;;;;5095784;28;20711;-69
2024/01/07 01:36:04;;;;;;;0.80;0.80;;;18.10;61.40;;;;;;5095994;28;20193;-70
2024/01/07 01:38:30;;;;;;;0.82;0.82;;;18.20;61.50;;;;;;5090269;28;20264;-69
2024/01/07 01:40:55;;;;;;;1.10;1.00;;;18.10;61.40;;;;;;5075287;28;20221;-69
2024/01/07 01:43:28;;;;;;;0.73;0.73;;;18.20;61.50;;;;;;5093449;28;20220;-69
2024/01/07 01:45:56;;;;;;;0.90;0.90;;;18.20;61.40;;;;;;5093614;28;20250;-69
2024/01/07 01:48:24;;;;;;;0.82;0.82;;;18.20;61.40;;;;;;5087477;28;20249;-70
2024/01/07 01:50:50;;;;;;;0.93;0.93;;;18.20;61.40;;;;;;5093424;28;20188;-68
2024/01/07 01:53:16;;;;;;;0.60;0.60;;;18.20;61.40;;;;;;5093253;28;20213;-69
2024/01/07 01:55:43;;;;;;;0.68;0.68;;;18.20;61.50;;;;;;5087921;28;20203;-68
2024/01/07 01:58:09;;;;;;;0.90;0.90;;;18.20;61.50;;;;;;5098957;28;20649;-69
2024/01/07 02:00:35;;;;;;;0.93;0.73;;;18.20;61.60;;;;;;5082327;28;20179;-70
2024/01/07 02:03:01;;;;;;;1.00;0.90;;;18.20;61.50;;;;;;5098968;28;20279;-69
2024/01/07 02:05:28;;;;;;;0.80;0.80;;;18.20;61.50;;;;;;5076499;28;20181;-69
2024/01/07 02:07:56;;;;;;;0.88;0.88;;;18.20;61.50;;;;;;5076060;28;20197;-69
2024/01/07 02:10:22;;;;;;;0.80;0.80;;;18.20;61.50;;;;;;5102003;28;20189;-69
2024/01/07 02:12:48;;;;;;;1.23;0.80;;;18.10;61.40;;;;;;5092578;28;20212;-69
2024/01/07 02:15:15;;;;;;;1.00;1.00;;;18.20;61.60;;;;;;5081983;28;20246;-68
2024/01/07 02:17:41;;;;;;;0.80;0.80;;;18.20;61.50;;;;;;5081694;28;20180;-69
2024/01/07 02:20:07;;;;;;;0.90;0.90;;;18.10;61.50;;;;;;5093911;28;20192;-68
2024/01/07 02:22:33;;;;;;;0.80;0.80;;;18.10;61.40;;;;;;5100291;28;20189;-70
2024/01/07 02:24:59;;;;;;;0.70;0.70;;;18.10;61.50;;;;;;5081157;28;20205;-69
2024/01/07 02:27:25;;;;;;;0.80;0.80;;;18.20;61.60;;;;;;5081995;28;20259;-69
2024/01/07 02:29:51;;;;;;;0.80;0.80;;;18.10;61.50;;;;;;5105106;28;20568;-69
2024/01/07 02:32:17;;;;;;;0.95;0.95;;;18.20;61.60;;;;;;5092599;28;20213;-70
2024/01/07 02:34:43;;;;;;;0.98;0.82;;;18.20;61.60;;;;;;5075994;28;20269;-69
2024/01/07 02:37:09;;;;;;;0.80;0.80;;;18.20;61.50;;;;;;5102151;28;20191;-69
2024/01/07 02:39:35;;;;;;;0.60;0.60;;;18.20;61.50;;;;;;5085679;28;20181;-69
2024/01/07 02:42:01;;;;;;;0.60;0.60;;;18.20;61.50;;;;;;5096188;28;20276;-69
2024/01/07 02:44:27;;;;;;;0.60;0.60;;;18.20;61.50;;;;;;5095836;28;20197;-69
2024/01/07 02:46:53;;;;;;;0.85;0.70;;;18.20;61.50;;;;;;5092389;28;20196;-69
2024/01/07 02:49:18;;;;;;;0.77;0.77;;;18.20;61.50;;;;;;5080503;28;20195;-69
2024/01/07 02:51:48;;;;;;;0.95;0.80;;;18.20;61.50;;;;;;5074293;28;20185;-69
2024/01/07 02:54:15;;;;;;;0.80;0.80;;;18.20;61.50;;;;;;5079696;28;20197;-69
2024/01/07 02:56:41;;;;;;;0.60;0.60;;;18.20;62.40;;;;;;5100354;28;20279;-69
2024/01/07 02:59:07;;;;;;;0.70;0.70;;;18.20;61.50;;;;;;5082955;28;20692;-69
2024/01/07 03:01:39;;;;;;;0.80;0.80;;;18.20;61.50;;;;;;5088651;28;20183;-69
2024/01/07 03:04:07;;;;;;;0.70;0.70;;;18.20;61.50;;;;;;5085121;28;20632;-71
2024/01/07 03:06:33;;;;;;;0.80;0.80;;;18.20;61.50;;;;;;5083467;28;20232;-69
2024/01/07 03:08:59;;;;;;;0.75;0.70;;;18.20;61.60;;;;;;5097793;28;20180;-69
2024/01/07 03:11:25;;;;;;;1.23;0.90;;;18.20;61.60;;;;;;5082509;28;20188;-69
2024/01/07 03:13:50;;;;;;;0.90;0.90;;;18.20;61.60;;;;;;5092833;28;20299;-69
2024/01/07 03:16:24;;;;;;;0.82;0.82;;;18.20;61.60;;;;;;5093061;28;20181;-68
2024/01/07 03:18:50;;;;;;;0.63;0.63;;;18.20;61.60;;;;;;5091847;28;20189;-69
2024/01/07 03:21:18;;;;;;;0.80;0.80;;;18.20;61.60;;;;;;5079901;28;20268;-69
2024/01/07 03:23:44;;;;;;;0.82;0.82;;;18.20;61.60;;;;;;5077754;28;20227;-70
2024/01/07 03:26:10;;;;;;;0.80;0.80;;;18.20;61.50;;;;;;5104871;28;20184;-69
2024/01/07 03:28:35;;;;;;;0.95;0.95;;;18.20;61.50;;;;;;5091664;28;20667;-69
2024/01/07 03:31:16;;;;;;;0.95;0.90;;;18.20;61.50;;;;;;5091780;28;20189;-69
2024/01/07 03:33:42;;;;;;;0.73;0.73;;;18.20;61.60;;;;;;5087658;28;20224;-69
2024/01/07 03:36:13;;;;;;;0.85;0.85;;;18.20;61.60;;;;;;5074313;28;20531;-69
2024/01/07 03:38:40;;;;;;;0.82;0.82;;;18.20;61.70;;;;;;5099765;28;20191;-69
2024/01/07 03:41:06;;;;;;;0.80;0.80;;;18.20;61.60;;;;;;5075891;28;20186;-69
2024/01/07 03:43:33;;;;;;;0.70;0.70;;;18.20;61.60;;;;;;5095179;28;20266;-69
2024/01/07 03:45:59;;;;;;;0.93;0.93;;;18.20;61.60;;;;;;5091250;28;20280;-69
2024/01/07 03:48:26;;;;;;;1.00;0.90;;;18.20;61.70;;;;;;5074010;28;20192;-70
2024/01/07 03:50:52;;;;;;;0.80;0.80;;;18.10;61.50;;;;;;5074171;28;20189;-69
2024/01/07 03:53:18;;;;;;;0.90;0.90;;;18.10;61.50;;;;;;5094846;28;20231;-69
2024/01/07 03:55:43;;;;;;;0.90;0.90;;;18.10;61.50;;;;;;5081251;28;20283;-69
2024/01/07 03:58:09;;;;;;;0.90;0.90;;;18.20;62.40;;;;;;5069878;28;20189;-69
2024/01/07 04:00:35;;;;;;;0.82;0.82;;;18.20;61.70;;;;;;5105073;28;20193;-69
2024/01/07 04:03:02;;;;;;;0.80;0.80;;;18.20;61.60;;;;;;5081686;28;20193;-69
2024/01/07 04:05:29;;;;;;;0.88;0.88;;;18.10;61.90;;;;;;5092081;28;20279;-69
2024/01/07 04:07:55;;;;;;;0.88;0.88;;;18.20;61.60;;;;;;5090874;28;20260;-69
2024/01/07 04:10:20;;;;;;;0.70;0.70;;;18.20;61.60;;;;;;5078627;28;20752;-69
2024/01/07 04:12:47;;;;;;;1.00;1.00;;;18.20;61.60;;;;;;5086978;28;20220;-69
2024/01/07 04:15:12;;;;;;;0.90;0.90;;;18.10;61.50;;;;;;5082885;28;20254;-70
2024/01/07 04:17:38;;;;;;;0.80;0.80;;;18.20;61.50;;;;;;5086235;28;20645;-69
2024/01/07 04:20:06;;;;;;;1.10;0.93;;;18.20;61.60;;;;;;5077664;28;20197;-69
2024/01/07 04:22:31;;;;;;;0.82;0.82;;;18.20;61.60;;;;;;5090394;28;20180;-69
2024/01/07 04:24:57;;;;;;;0.90;0.90;;;18.20;61.50;;;;;;5090647;28;20212;-69
2024/01/07 04:27:24;;;;;;;0.90;0.90;;;18.20;61.50;;;;;;5067634;28;20269;-69
2024/01/07 04:29:51;;;;;;;0.80;0.80;;;18.20;61.50;;;;;;5088922;28;20217;-70
2024/01/07 04:32:16;;;;;;;0.90;0.90;;;18.20;61.60;;;;;;5076924;28;20609;-69
2024/01/07 04:34:42;;;;;;;0.80;0.80;;;18.20;61.60;;;;;;5091735;28;20201;-69
2024/01/07 04:37:08;;;;;;;1.10;1.00;;;18.20;61.60;;;;;;5071368;28;20184;-69
2024/01/07 04:39:34;;;;;;;0.80;0.80;;;18.20;61.50;;;;;;5073425;28;20197;-69
2024/01/07 04:41:59;;;;;;;0.90;0.90;;;18.20;61.60;;;;;;5073746;28;20226;-69
2024/01/07 04:44:25;;;;;;;1.05;1.00;;;18.20;61.50;;;;;;5077070;28;20212;-69
2024/01/07 04:46:51;;;;;;;0.73;0.73;;;18.20;61.60;;;;;;5077274;28;20196;-70
2024/01/07 04:49:16;;;;;;;0.80;0.80;;;18.20;61.60;;;;;;5078562;28;20208;-69
2024/01/07 04:51:42;;;;;;;0.98;0.98;;;18.20;61.50;;;;;;5091262;28;20200;-69
2024/01/07 04:54:08;;;;;;;0.60;0.60;;;18.20;61.60;;;;;;5093590;28;20211;-69
2024/01/07 04:56:34;;;;;;;0.70;0.70;;;18.10;61.50;;;;;;5089329;28;20208;-69
2024/01/07 04:58:59;;;;;;;0.90;0.90;;;18.10;61.50;;;;;;5073275;28;20206;-69
2024/01/07 05:01:25;;;;;;;0.88;0.88;;;18.20;61.60;;;;;;5083022;28;20183;-69
2024/01/07 05:03:51;;;;;;;1.00;1.00;;;18.10;61.50;;;;;;5092993;28;20204;-69
2024/01/07 05:06:17;;;;;;;0.90;0.90;;;18.20;61.50;;;;;;5079665;28;20238;-71
2024/01/07 05:08:43;;;;;;;0.93;0.93;;;18.20;61.50;;;;;;5115301;28;20189;-69
2024/01/07 05:11:09;;;;;;;1.00;1.00;;;18.20;61.60;;;;;;5091209;28;20566;-69
2024/01/07 05:13:37;;;;;;;0.80;0.80;;;18.10;61.50;;;;;;5092848;28;20302;-69
2024/01/07 05:16:04;;;;;;;0.90;0.90;;;18.20;61.50;;;;;;5076004;28;20189;-71
2024/01/07 05:18:29;;;;;;;1.00;1.00;;;18.20;61.50;;;;;;5093979;28;20181;-69
2024/01/07 05:20:55;;;;;;;1.00;1.00;;;18.20;61.60;;;;;;5096725;28;20188;-69
2024/01/07 05:23:21;;;;;;;0.88;0.88;;;18.10;62.20;;;;;;5096333;28;20209;-69
2024/01/07 05:25:46;;;;;;;0.95;0.95;;;18.20;61.50;;;;;;5093960;28;20195;-69
2024/01/07 05:28:13;;;;;;;0.80;0.80;;;18.20;61.50;;;;;;5074765;28;20182;-69
2024/01/07 05:30:40;;;;;;;1.10;1.00;;;18.20;61.50;;;;;;5110224;28;20192;-69
2024/01/07 05:33:06;;;;;;;0.88;0.88;;;18.20;61.50;;;;;;5085144;28;20217;-69
2024/01/07 05:35:32;;;;;;;1.30;1.20;;;18.20;61.60;;;;;;5111152;28;20187;-69
2024/01/07 05:37:58;;;;;;;0.90;0.90;;;18.10;61.40;;;;;;5093765;28;20192;-68
2024/01/07 05:40:24;;;;;;;1.20;1.10;;;18.20;61.50;;;;;;5084837;28;20192;-69
2024/01/07 05:42:49;;;;;;;1.02;1.02;;;18.10;61.40;;;;;;5096430;28;20703;-69
2024/01/07 05:45:15;;;;;;;1.10;1.10;;;18.20;61.50;;;;;;5096662;28;20220;-69
2024/01/07 05:47:41;;;;;;;0.90;0.90;;;18.10;61.40;;;;;;5110258;28;20197;-70
2024/01/07 05:50:08;;;;;;;1.02;1.00;;;18.10;61.40;;;;;;5093369;28;20223;-69
2024/01/07 05:52:34;;;;;;;0.88;0.88;;;18.20;61.60;;;;;;5081212;28;20247;-69
2024/01/07 05:55:00;;;;;;;0.98;0.98;;;18.20;61.50;;;;;;5081797;28;20546;-70
2024/01/07 05:57:26;;;;;;;0.90;0.90;;;18.20;61.50;;;;;;5095787;28;20195;-69
2024/01/07 05:59:52;;;;;;;1.17;1.08;;;18.20;61.40;;;;;;5095786;28;20238;-70
2024/01/07 06:02:18;;;;;;;1.10;1.00;;;18.20;61.50;;;;;;5092996;28;20185;-70
2024/01/07 06:04:44;;;;;;;0.82;0.82;;;18.20;61.50;;;;;;5095271;28;20211;-69
2024/01/07 06:07:10;;;;;;;0.88;0.88;;;18.20;61.50;;;;;;5088453;28;20192;-69
2024/01/07 06:09:35;;;;;;;1.48;1.00;;;18.20;61.50;;;;;;5094263;28;20219;-69
2024/01/07 06:12:01;;;;;;;1.02;0.98;;;18.20;61.50;;;;;;5080586;28;20661;-69
2024/01/07 06:14:27;;;;;;;1.00;1.00;;;18.10;61.40;;;;;;5090517;28;20208;-69
2024/01/07 06:16:53;;;;;;;0.98;0.90;;;18.20;61.50;;;;;;5076040;28;20187;-69
2024/01/07 06:19:19;;;;;;;0.90;0.90;;;18.20;61.50;;;;;;5078333;28;20185;-69
2024/01/07 06:21:45;;;;;;;0.80;0.80;;;18.20;61.50;;;;;;5090182;28;20190;-69
2024/01/07 06:24:11;;;;;;;0.80;0.80;;;18.20;61.40;;;;;;5096137;28;20205;-69
2024/01/07 06:26:37;;;;;;;0.73;0.73;;;18.20;61.50;;;;;;5076557;28;20647;-69
2024/01/07 06:29:03;;;;;;;0.90;0.90;;;18.20;61.50;;;;;;5094614;28;20234;-70
2024/01/07 06:31:28;;;;;;;1.00;1.00;;;18.20;61.60;;;;;;5095752;28;20185;-69
2024/01/07 06:33:57;;;;;;;0.80;0.80;;;18.20;61.50;;;;;;5079902;28;20211;-69
2024/01/07 06:36:25;;;;;;;0.70;0.70;;;18.20;61.50;;;;;;5075066;28;20640;-70
2024/01/07 06:38:51;;;;;;;1.17;1.10;;;18.20;61.50;;;;;;5075659;28;20231;-69
2024/01/07 06:41:17;;;;;;;0.95;0.95;;;18.20;61.50;;;;;;5079956;28;20634;-69
2024/01/07 06:43:42;;;;;;;0.90;0.90;;;18.20;61.50;;;;;;5074107;28;20209;-69
2024/01/07 06:46:08;;;;;;;0.80;0.80;;;18.20;61.50;;;;;;5078690;28;20195;-69
2024/01/07 06:48:34;;;;;;;0.90;0.90;;;18.20;61.60;;;;;;5109889;28;20191;-69
2024/01/07 06:51:00;;;;;;;0.82;0.82;;;18.20;61.60;;;;;;5097190;28;20188;-70
2024/01/07 06:53:25;;;;;;;0.88;0.88;;;18.20;61.50;;;;;;5095753;28;20299;-69
2024/01/07 06:55:51;;;;;;;0.90;0.90;;;18.20;61.50;;;;;;5095668;28;20198;-69
2024/01/07 06:58:17;;;;;;;0.70;0.70;;;18.20;61.50;;;;;;5086933;28;20181;-69
2024/01/07 07:00:42;;;;;;;1.00;1.00;;;18.20;61.50;;;;;;5090377;28;20184;-70
2024/01/07 07:03:08;;;;;;;0.85;0.85;;;18.20;61.60;;;;;;5090677;28;20216;-69
2024/01/07 07:05:34;;;;;;;0.80;0.80;;;18.20;61.60;;;;;;5086493;28;20200;-70
2024/01/07 07:08:02;;;;;;;0.90;0.90;;;18.20;61.50;;;;;;5076573;28;20204;-70
2024/01/07 07:10:27;;;;;;;0.80;0.80;;;18.20;61.50;;;;;;5086109;28;20280;-69
2024/01/07 07:12:53;;;;;;;0.70;0.70;;;18.20;61.50;;;;;;5087225;28;20204;-69
2024/01/07 07:15:19;;;;;;;0.68;0.68;;;18.20;61.60;;;;;;5077835;28;20185;-69
2024/01/07 07:17:45;;;;;;;0.73;0.73;;;18.20;61.50;;;;;;5081497;28;20181;-69
2024/01/07 07:20:11;;;;;;;0.70;0.70;;;18.20;61.50;;;;;;5090776;28;20186;-70
2024/01/07 07:22:37;;;;;;;0.60;0.60;;;18.20;61.50;;;;;;5076441;28;20193;-70
2024/01/07 07:25:03;;;;;;;0.73;0.73;;;18.20;61.60;;;;;;5074888;28;20208;-69
2024/01/07 07:27:29;;;;;;;0.65;0.65;;;18.20;61.60;;;;;;5071320;28;20186;-72
2024/01/07 07:29:55;;;;;;;0.90;0.90;;;18.20;61.60;;;;;;5099865;28;20173;-69
2024/01/07 07:32:21;;;;;;;0.90;0.90;;;18.20;61.50;;;;;;5100176;28;20208;-69
2024/01/07 07:34:47;;;;;;;0.85;0.85;;;18.20;61.60;;;;;;5092531;28;20204;-69
2024/01/07 07:37:13;;;;;;;0.52;0.52;;;18.20;61.50;;;;;;5080117;28;20180;-69
2024/01/07 07:39:39;;;;;;;0.63;0.63;;;18.20;61.50;;;;;;5077696;28;20181;-69
2024/01/07 07:42:05;;;;;;;0.82;0.82;;;18.20;61.80;;;;;;5093770;28;20184;-69
2024/01/07 07:44:32;;;;;;;0.75;0.75;;;18.20;61.50;;;;;;5074398;28;20227;-71
2024/01/07 07:46:57;;;;;;;0.90;0.90;;;18.20;61.60;;;;;;5075409;28;20563;-70
2024/01/07 07:49:23;;;;;;;1.00;0.70;;;18.20;61.50;;;;;;5090134;28;20193;-69
2024/01/07 07:51:49;;;;;;;0.70;0.70;;;18.20;61.60;;;;;;5073715;28;20188;-69
2024/01/07 07:54:15;;;;;;;0.85;0.85;;;18.20;61.50;;;;;;5089246;28;20212;-69
2024/01/07 07:56:40;;;;;;;0.80;0.80;;;18.20;61.60;;;;;;5075783;28;20184;-70
2024/01/07 07:59:08;;;;;;;0.90;0.90;;;18.20;61.60;;;;;;5089394;28;20195;-69
2024/01/07 08:01:34;;;;;;;0.80;0.80;;;18.20;61.60;;;;;;5089738;28;20180;-70
2024/01/07 08:04:02;;;;;;;0.90;0.90;;;18.20;61.60;;;;;;5071075;28;20209;-69
2024/01/07 08:06:28;;;;;;;0.85;0.85;;;18.20;61.60;;;;;;5095051;28;20272;-69
2024/01/07 08:08:54;;;;;;;0.98;0.98;;;18.20;61.60;;;;;;5099966;28;20200;-69
2024/01/07 08:11:20;;;;;;;0.65;0.65;;;18.20;61.60;;;;;;5108328;27;20189;-69
2024/01/07 08:13:46;;;;;;;0.88;0.88;;;18.20;61.60;;;;;;5091970;28;20224;-69
2024/01/07 08:16:12;;;;;;;0.90;0.90;;;18.20;62.40;;;;;;5074629;28;20180;-69
2024/01/07 08:18:37;;;;;;;0.98;0.98;;;18.20;61.60;;;;;;5089960;28;20640;-69
2024/01/07 08:21:03;;;;;;;0.98;0.98;;;18.20;61.50;;;;;;5073599;28;20291;-69
2024/01/07 08:23:29;;;;;;;0.80;0.80;;;18.20;61.50;;;;;;5091798;28;20234;-69
2024/01/07 08:25:54;;;;;;;0.90;0.90;;;18.20;61.60;;;;;;5089267;28;20196;-69
2024/01/07 08:28:20;;;;;;;1.00;1.00;;;18.20;61.50;;;;;;5090855;28;20201;-69
2024/01/07 08:30:47;;;;;;;0.93;0.93;;;18.20;61.60;;;;;;5065419;28;20241;-69
2024/01/07 08:33:12;;;;;;;0.90;0.90;;;18.20;61.60;;;;;;5090212;28;20216;-69
2024/01/07 08:35:38;;;;;;;1.00;1.00;;;18.20;61.50;;;;;;5089615;28;20214;-68
2024/01/07 08:38:04;;;;;;;0.70;0.70;;;18.20;61.50;;;;;;5074208;28;20189;-69
2024/01/07 08:40:31;;;;;;;0.90;0.90;;;18.20;61.60;;;;;;5104785;28;20655;-70
2024/01/07 08:42:56;;;;;;;0.90;0.90;;;18.20;61.60;;;;;;5090103;28;20185;-69
2024/01/07 08:45:22;;;;;;;0.82;0.82;;;18.20;61.60;;;;;;5092372;28;20208;-69
2024/01/07 08:47:48;;;;;;;0.80;0.80;;;18.20;61.50;;;;;;5088800;28;20199;-69
2024/01/07 08:50:14;;;;;;;1.10;1.10;;;18.20;61.60;;;;;;5069662;28;20707;-69
2024/01/07 08:52:40;;;;;;;0.90;0.90;;;18.20;61.50;;;;;;5070537;28;20623;-69
2024/01/07 08:55:09;;;;;;;0.90;0.90;;;18.20;61.60;;;;;;5088143;28;20192;-69
2024/01/07 08:57:37;;;;;;;0.93;0.93;;;18.30;61.70;;;;;;5091505;28;20189;-69
2024/01/07 09:00:07;;;;;;;1.05;1.05;;;18.20;61.60;;;;;;5106793;28;20212;-69
2024/01/07 09:02:33;;;;;;;1.02;1.02;;;18.20;61.60;;;;;;5073213;28;20189;-70
2024/01/07 09:04:59;;;;;;;0.90;0.90;;;18.20;61.60;;;;;;5106323;28;20211;-69
2024/01/07 09:07:25;;;;;;;1.08;1.08;;;18.30;61.70;;;;;;5089523;28;20185;-69
2024/01/07 09:09:51;;;;;;;1.27;1.17;;;18.30;61.60;;;;;;5091169;28;20283;-69
2024/01/07 09:12:17;;;;;;;0.90;0.90;;;18.30;61.60;;;;;;5091548;28;20213;-69
2024/01/07 09:14:42;;;;;;;1.10;1.10;;;18.30;61.70;;;;;;5072182;28;20249;-69
2024/01/07 09:17:08;;;;;;;1.10;1.10;;;18.30;61.70;;;;;;5082282;28;20196;-69
2024/01/07 09:19:34;;;;;;;0.80;0.80;;;18.20;61.60;;;;;;5089859;28;20181;-69
2024/01/07 09:22:00;;;;;;;1.10;1.10;;;18.20;61.60;;;;;;5089800;28;20202;-69
2024/01/07 09:24:25;;;;;;;1.15;1.13;;;18.30;61.80;;;;;;5078547;28;20209;-69
2024/01/07 09:26:51;;;;;;;1.13;1.13;;;18.30;61.70;;;;;;5099395;28;20227;-69
2024/01/07 09:29:17;;;;;;;0.90;0.90;;;18.20;61.60;;;;;;5068624;28;20217;-69
2024/01/07 09:31:43;;;;;;;1.10;1.10;;;18.20;62.40;;;;;;5086241;28;20180;-69
2024/01/07 09:34:09;;;;;;;0.98;0.98;;;18.20;61.60;;;;;;5086040;28;20213;-68
2024/01/07 09:36:36;;;;;;;1.30;1.20;;;18.30;61.70;;;;;;5086828;28;20186;-68
2024/01/07 09:39:04;;;;;;;1.10;1.10;;;18.20;61.60;;;;;;5087904;28;20185;-70
2024/01/07 09:41:30;;;;;;;1.02;1.02;;;18.20;61.50;;;;;;5090886;28;20185;-68
2024/01/07 09:43:58;;;;;;;1.15;1.10;;;18.20;61.70;;;;;;5087993;28;20212;-68
2024/01/07 09:46:28;;;;;;;1.33;1.30;;;18.20;61.60;;;;;;5086436;28;20644;-68
2024/01/07 09:48:54;;;;;;;1.23;1.20;;;18.30;61.70;;;;;;5090269;28;20188;-69
2024/01/07 09:51:23;;;;;;;1.40;1.30;;;18.20;61.60;;;;;;5073316;28;20188;-69
2024/01/07 09:53:58;;;;;;;1.30;1.20;;;18.30;62.60;;;;;;5090612;28;20212;-68
2024/01/07 09:56:29;;;;;;;1.40;1.30;;;18.30;61.70;;;;;;5086518;28;20179;-69
2024/01/07 09:58:55;;;;;;;1.40;1.30;;;18.30;61.80;;;;;;5094375;28;20246;-68
2024/01/07 10:01:20;;;;;;;1.20;1.10;;;18.30;61.80;;;;;;5097399;28;20181;-69
2024/01/07 10:03:46;;;;;;;1.20;1.20;;;18.30;61.80;;;;;;5079466;28;20217;-68
2024/01/07 10:06:12;;;;;;;1.40;1.30;;;18.30;61.80;;;;;;5093586;28;20283;-68
2024/01/07 10:08:39;;;;;;;1.42;1.33;;;18.30;61.70;;;;;;5091455;28;20176;-69
2024/01/07 10:11:05;;;;;;;1.30;1.20;;;18.30;61.80;;;;;;5076057;28;20346;-70
2024/01/07 10:13:32;;;;;;;1.13;1.13;;;18.30;61.80;;;;;;5074962;28;20244;-69
2024/01/07 10:15:57;;;;;;;1.40;1.40;;;18.20;61.70;;;;;;5092012;28;20185;-69
2024/01/07 10:18:25;;;;;;;1.60;1.50;;;18.20;61.70;;;;;;5075518;28;20253;-70
2024/01/07 10:20:51;;;;;;;1.98;1.50;;;18.20;61.70;;;;;;5094658;28;20208;-69
2024/01/07 10:23:20;;;;;;;1.73;1.58;;;18.20;61.60;;;;;;5091914;28;20706;-69
2024/01/07 10:25:47;;;;;;;1.50;1.40;;;18.20;61.80;;;;;;5093028;28;20246;-70
2024/01/07 10:28:14;;;;;;;1.73;1.40;;;18.20;61.80;;;;;;5092591;28;20188;-69
2024/01/07 10:30:40;;;;;;;1.52;1.30;;;18.20;61.70;;;;;;5083992;28;20189;-69
2024/01/07 10:33:08;;;;;;;1.50;1.40;;;18.20;61.70;;;;;;5092070;28;20207;-69
2024/01/07 10:35:37;;;;;;;1.63;1.52;;;18.30;61.80;;;;;;5097204;28;20185;-69
2024/01/07 10:38:03;;;;;;;1.50;1.40;;;18.30;61.80;;;;;;5075818;28;20249;-68
2024/01/07 10:40:32;;;;;;;2.13;1.90;;;18.30;61.90;;;;;;5099498;28;20181;-68
2024/01/07 10:42:58;;;;;;;1.70;1.60;;;18.20;61.80;;;;;;5075854;28;20189;-68
2024/01/07 10:45:24;;;;;;;1.40;1.30;;;18.20;61.80;;;;;;5079787;28;20275;-68
2024/01/07 10:47:55;;;;;;;1.60;1.50;;;18.20;61.80;;;;;;5105467;28;20292;-68
2024/01/07 10:50:22;;;;;;;1.80;1.70;;;18.20;61.80;;;;;;5097727;28;20261;-68
2024/01/07 10:52:51;;;;;;;1.50;1.40;;;18.20;61.80;;;;;;5095444;28;20212;-68
2024/01/07 10:55:18;;;;;;;4.05;1.60;;;18.30;61.80;;;;;;5088424;28;20247;-68
2024/01/07 10:57:47;;;;;;;1.85;1.70;;;18.20;61.80;;;;;;5091436;28;20689;-68
2024/01/07 11:00:20;;;;;;;1.98;1.77;;;18.30;61.90;;;;;;5085478;28;20192;-68
2024/01/07 11:03:09;;;;;;;1.70;1.60;;;18.20;61.70;;;;;;5083156;28;20196;-68
2024/01/07 11:05:48;;;;;;;2.45;1.73;;;18.20;61.80;;;;;;5094963;28;20188;-68
2024/01/07 11:08:43;;;;;;;1.67;1.58;;;18.20;61.80;;;;;;5075412;28;20181;-68
2024/01/07 11:11:23;;;;;;;1.75;1.65;;;18.20;61.80;;;;;;5091961;28;20200;-69
2024/01/07 11:13:49;;;;;;;1.83;1.73;;;18.30;62.00;;;;;;5089078;28;20298;-68
2024/01/07 11:16:43;;;;;;;1.90;1.70;;;18.20;61.80;;;;;;5092201;28;20338;-68
2024/01/07 11:19:14;;;;;;;1.58;1.48;;;18.30;62.00;;;;;;5074931;28;20271;-69
2024/01/07 11:21:40;;;;;;;1.92;1.83;;;18.20;61.90;;;;;;5082789;28;20271;-68
2024/01/07 11:24:05;;;;;;;2.58;1.80;;;18.30;62.00;;;;;;5095174;28;20283;-68
2024/01/07 11:26:31;;;;;;;1.85;1.60;;;18.30;62.00;;;;;;5096264;28;20192;-68
2024/01/07 11:29:00;;;;;;;1.70;1.60;;;18.30;62.00;;;;;;5092783;28;20200;-67
2024/01/07 11:31:44;;;;;;;1.92;1.75;;;18.30;62.00;;;;;;5122326;27;20242;-68
2024/01/07 11:34:10;;;;;;;1.83;1.73;;;18.20;61.90;;;;;;5066393;28;20247;-68
2024/01/07 11:36:37;;;;;;;1.70;1.60;;;18.20;61.90;;;;;;5074460;28;20205;-68
2024/01/07 11:39:06;;;;;;;2.08;1.88;;;18.20;61.90;;;;;;5100457;28;20185;-67
2024/01/07 11:41:34;;;;;;;2.42;2.00;;;18.20;61.90;;;;;;5082129;28;20671;-68
2024/01/07 11:44:01;;;;;;;1.67;1.58;;;18.30;62.00;;;;;;5090947;28;20212;-68
2024/01/07 11:46:28;;;;;;;1.88;1.77;;;18.30;62.00;;;;;;5092346;28;20184;-68
2024/01/07 11:49:01;;;;;;;2.05;1.90;;;18.30;62.80;;;;;;5099049;28;20199;-68
2024/01/07 11:51:34;;;;;;;3.47;1.90;;;18.20;62.00;;;;;;5073414;28;20275;-68
2024/01/07 11:54:01;;;;;;;2.20;2.00;;;18.20;61.90;;;;;;5075553;28;20217;-68
2024/01/07 11:56:28;;;;;;;2.35;1.95;;;18.30;62.10;;;;;;5099580;28;20191;-68
2024/01/07 11:58:56;;;;;;;2.15;2.03;;;18.20;61.80;;;;;;5091061;28;20181;-68
2024/01/07 12:01:22;;;;;;;3.38;2.10;;;18.20;61.90;;;;;;5073891;28;20426;-68
2024/01/07 12:03:47;;;;;;;2.15;1.95;;;18.20;61.90;;;;;;5099247;28;20208;-69
2024/01/07 12:06:14;;;;;;;2.80;2.03;;;18.20;62.00;;;;;;5092540;28;20723;-68
2024/01/07 12:08:42;;;;;;;1.98;1.88;;;18.20;61.90;;;;;;5101986;28;20184;-68
2024/01/07 12:11:11;;;;;;;1.95;1.85;;;18.20;61.90;;;;;;5110167;28;20188;-68
2024/01/07 12:13:37;;;;;;;2.50;2.05;;;18.20;61.90;;;;;;5093019;28;20223;-68
2024/01/07 12:16:05;;;;;;;2.42;2.08;;;18.20;62.00;;;;;;5107725;28;20548;-67
2024/01/07 12:18:31;;;;;;;2.05;1.92;;;18.20;61.90;;;;;;5098083;28;20192;-68
2024/01/07 12:20:59;;;;;;;2.00;1.90;;;18.20;61.90;;;;;;5090371;28;20212;-68
2024/01/07 12:23:26;;;;;;;1.70;1.60;;;18.30;62.00;;;;;;5081873;28;20208;-68
2024/01/07 12:26:06;;;;;;;1.90;1.80;;;18.30;62.10;;;;;;5089263;28;20192;-69
2024/01/07 12:28:32;;;;;;;1.90;1.80;;;18.30;62.00;;;;;;5091048;28;20242;-69
2024/01/07 12:30:58;;;;;;;2.95;1.90;;;18.20;62.00;;;;;;5097601;28;20183;-68
2024/01/07 12:33:26;;;;;;;1.88;1.77;;;18.20;62.00;;;;;;5086634;28;20217;-70
2024/01/07 12:35:51;;;;;;;1.75;1.65;;;18.30;62.10;;;;;;5095037;28;20202;-69
2024/01/07 12:38:26;;;;;;;2.13;1.90;;;18.30;62.10;;;;;;5090307;28;20244;-68
2024/01/07 12:40:53;;;;;;;2.30;2.10;;;18.20;62.00;;;;;;5090400;28;20199;-68
2024/01/07 12:43:20;;;;;;;2.33;2.13;;;18.20;62.00;;;;;;5090076;28;20212;-69
2024/01/07 12:45:47;;;;;;;1.92;1.83;;;18.20;62.00;;;;;;5091608;28;20196;-69